createdAt,value
2019-02-06T00:01:27.758Z,18.70
2019-02-06T00:03:31.529Z,16.27
2019-02-06T00:05:35.449Z,14.20
2019-02-06T00:07:39.184Z,11.43
2019-02-06T00:09:42.953Z,9.90
2019-02-06T00:11:46.672Z,10.20
2019-02-06T00:13:50.466Z,9.40
2019-02-06T00:15:55.750Z,9.40
2019-02-06T00:17:59.551Z,9.10
2019-02-06T00:20:04.986Z,9.80
2019-02-06T00:22:08.775Z,10.10
2019-02-06T00:24:12.634Z,10.53
2019-02-06T00:26:16.403Z,10.67
2019-02-06T00:28:20.194Z,10.83
2019-02-06T00:30:25.498Z,11.40
2019-02-06T00:32:29.173Z,9.77
2019-02-06T00:34:33.446Z,10.80
2019-02-06T00:36:37.192Z,10.53
2019-02-06T00:38:41.030Z,10.63
2019-02-06T00:40:45.042Z,12.93
2019-02-06T00:42:48.859Z,10.50
2019-02-06T00:44:52.560Z,10.17
2019-02-06T00:46:56.367Z,11.27
2019-02-06T00:49:00.004Z,9.87
2019-02-06T00:51:03.823Z,9.43
2019-02-06T00:53:07.643Z,10.50
2019-02-06T00:55:13.196Z,10.20
2019-02-06T00:57:16.917Z,10.80
2019-02-06T00:59:20.623Z,10.30
2019-02-06T01:01:24.870Z,12.63
2019-02-06T01:03:28.730Z,12.77
2019-02-06T01:05:38.374Z,13.23
2019-02-06T01:07:37.957Z,13.47
2019-02-06T01:09:41.784Z,12.37
2019-02-06T01:11:45.931Z,13.07
2019-02-06T01:13:49.691Z,12.20
2019-02-06T01:15:53.476Z,10.97
2019-02-06T01:17:57.192Z,11.80
2019-02-06T01:20:01.583Z,12.23
2019-02-06T01:22:05.397Z,13.23
2019-02-06T01:24:09.225Z,13.03
2019-02-06T01:26:13.113Z,13.63
2019-02-06T01:28:16.879Z,12.80
2019-02-06T01:30:25.134Z,13.40
2019-02-06T01:32:28.361Z,13.77
2019-02-06T01:34:32.188Z,13.63
2019-02-06T01:36:37.862Z,13.70
2019-02-06T01:38:41.662Z,13.43
2019-02-06T01:40:45.529Z,13.73
2019-02-06T01:42:49.335Z,13.23
2019-02-06T01:44:53.459Z,13.50
2019-02-06T01:46:57.423Z,14.00
2019-02-06T01:49:01.038Z,14.30
2019-02-06T01:51:04.916Z,12.93
2019-02-06T01:53:08.642Z,13.40
2019-02-06T01:55:14.507Z,14.50
2019-02-06T01:57:18.425Z,12.70
2019-02-06T01:59:22.197Z,11.13
2019-02-06T02:01:25.842Z,10.83
2019-02-06T02:03:29.642Z,11.27
2019-02-06T02:05:33.382Z,10.77
2019-02-06T02:07:37.174Z,10.83
2019-02-06T02:09:40.980Z,10.97
2019-02-06T02:11:44.982Z,10.17
2019-02-06T02:13:48.864Z,11.67
2019-02-06T02:15:52.656Z,12.07
2019-02-06T02:17:57.849Z,11.10
2019-02-06T02:20:04.049Z,11.53
2019-02-06T02:22:10.302Z,11.38
2019-02-06T02:24:14.060Z,11.37
2019-02-06T02:26:17.722Z,11.63
2019-02-06T02:28:23.150Z,12.20
2019-02-06T02:30:34.711Z,11.40
2019-02-06T02:32:38.499Z,11.93
2019-02-06T02:34:42.528Z,12.33
2019-02-06T02:36:46.233Z,10.93
2019-02-06T02:38:49.927Z,12.83
2019-02-06T02:40:53.656Z,12.60
2019-02-06T02:42:57.457Z,11.33
2019-02-06T02:45:01.577Z,12.67
2019-02-06T02:47:05.230Z,12.50
2019-02-06T02:49:08.948Z,11.80
2019-02-06T02:51:12.674Z,11.38
2019-02-06T02:53:16.453Z,11.70
2019-02-06T02:55:24.718Z,12.10
2019-02-06T02:57:28.432Z,11.50
2019-02-06T02:59:32.215Z,13.40
2019-02-06T03:01:46.630Z,11.13
2019-02-06T03:04:00.923Z,12.10
2019-02-06T03:06:06.218Z,12.40
2019-02-06T03:08:10.410Z,10.93
2019-02-06T03:10:14.353Z,12.13
2019-02-06T03:12:18.161Z,11.55
2019-02-06T03:14:22.030Z,10.98
2019-02-06T03:16:25.707Z,11.35
2019-02-06T03:18:29.478Z,11.40
2019-02-06T03:20:33.206Z,10.10
2019-02-06T03:22:36.875Z,10.30
2019-02-06T03:24:40.575Z,10.13
2019-02-06T03:26:44.224Z,10.85
2019-02-06T03:28:48.412Z,11.40
2019-02-06T03:30:52.023Z,11.00
2019-02-06T03:32:55.801Z,10.57
2019-02-06T03:34:59.603Z,10.50
2019-02-06T03:37:03.356Z,9.53
2019-02-06T03:39:08.525Z,9.50
2019-02-06T03:41:12.138Z,10.30
2019-02-06T03:43:15.824Z,10.20
2019-02-06T03:45:19.532Z,10.03
2019-02-06T03:47:23.164Z,9.80
2019-02-06T03:49:27.272Z,11.10
2019-02-06T03:51:31.041Z,8.97
2019-02-06T03:53:35.045Z,10.40
2019-02-06T03:55:38.796Z,10.00
2019-02-06T03:57:42.567Z,10.00
2019-02-06T03:59:46.430Z,9.70
2019-02-06T04:01:50.072Z,9.63
2019-02-06T04:03:54.470Z,9.90
2019-02-06T04:05:58.285Z,11.00
2019-02-06T04:08:01.906Z,10.40
2019-02-06T04:10:14.468Z,10.23
2019-02-06T04:12:18.299Z,11.13
2019-02-06T04:14:22.004Z,10.70
2019-02-06T04:16:25.614Z,10.20
2019-02-06T04:18:29.191Z,10.68
2019-02-06T04:20:33.433Z,12.68
2019-02-06T04:22:37.196Z,11.00
2019-02-06T04:24:40.899Z,10.13
2019-02-06T04:26:44.563Z,10.68
2019-02-06T04:28:48.289Z,11.70
2019-02-06T04:30:53.877Z,12.25
2019-02-06T04:32:57.593Z,11.03
2019-02-06T04:35:01.282Z,11.57
2019-02-06T04:37:06.947Z,11.10
2019-02-06T04:39:10.929Z,12.28
2019-02-06T04:41:15.121Z,13.03
2019-02-06T04:43:24.800Z,13.07
2019-02-06T04:45:24.211Z,13.93
2019-02-06T04:47:27.916Z,11.88
2019-02-06T04:49:31.581Z,12.98
2019-02-06T04:51:36.065Z,13.80
2019-02-06T04:53:39.942Z,13.08
2019-02-06T04:55:43.658Z,11.90
2019-02-06T04:57:47.449Z,10.95
2019-02-06T04:59:51.054Z,13.00
2019-02-06T05:01:54.822Z,13.85
2019-02-06T05:03:58.475Z,14.03
2019-02-06T05:06:02.238Z,15.08
2019-02-06T05:08:05.899Z,13.53
2019-02-06T05:10:14.266Z,14.07
2019-02-06T05:12:18.359Z,13.10
2019-02-06T05:14:22.113Z,12.80
2019-02-06T05:16:25.854Z,12.37
2019-02-06T05:18:29.425Z,11.83
2019-02-06T05:20:35.739Z,12.30
2019-02-06T05:22:40.933Z,12.93
2019-02-06T05:24:44.676Z,12.95
2019-02-06T05:26:50.035Z,12.33
2019-02-06T05:28:53.709Z,13.03
2019-02-06T05:30:57.379Z,13.70
2019-02-06T05:33:01.159Z,14.90
2019-02-06T05:35:05.274Z,13.57
2019-02-06T05:37:09.129Z,15.32
2019-02-06T05:39:12.853Z,13.83
2019-02-06T05:41:16.633Z,13.43
2019-02-06T05:43:22.047Z,12.75
2019-02-06T05:45:25.941Z,13.05
2019-02-06T05:47:29.794Z,13.13
2019-02-06T05:49:33.542Z,13.05
2019-02-06T05:51:37.657Z,13.20
2019-02-06T05:53:41.528Z,11.83
2019-02-06T05:55:45.277Z,11.45
2019-02-06T05:57:49.159Z,11.22
2019-02-06T05:59:52.997Z,11.55
2019-02-06T06:01:57.447Z,13.10
2019-02-06T06:04:01.198Z,12.63
2019-02-06T06:06:05.247Z,12.53
2019-02-06T06:08:09.152Z,13.45
2019-02-06T06:10:15.576Z,12.03
2019-02-06T06:12:19.846Z,13.60
2019-02-06T06:14:23.594Z,14.30
2019-02-06T06:16:27.335Z,15.55
2019-02-06T06:18:31.124Z,13.30
2019-02-06T06:20:34.908Z,12.13
2019-02-06T06:22:38.810Z,12.03
2019-02-06T06:24:42.568Z,11.80
2019-02-06T06:26:46.368Z,12.18
2019-02-06T06:28:50.264Z,11.55
2019-02-06T06:30:53.978Z,10.68
2019-02-06T06:32:57.666Z,10.40
2019-02-06T06:35:01.536Z,10.85
2019-02-06T06:37:05.391Z,9.73
2019-02-06T06:39:09.260Z,10.32
2019-02-06T06:41:14.655Z,9.68
2019-02-06T06:43:20.603Z,9.15
2019-02-06T06:45:25.591Z,10.90
2019-02-06T06:47:29.518Z,10.50
2019-02-06T06:49:33.346Z,9.53
2019-02-06T06:51:37.625Z,10.35
2019-02-06T06:53:41.674Z,10.23
2019-02-06T06:55:45.502Z,10.58
2019-02-06T06:57:49.357Z,9.83
2019-02-06T06:59:55.569Z,9.70
2019-02-06T07:02:00.300Z,11.15
2019-02-06T07:04:04.237Z,12.82
2019-02-06T07:06:08.107Z,13.05
2019-02-06T07:08:13.548Z,11.83
2019-02-06T07:10:18.241Z,10.72
2019-02-06T07:12:22.142Z,12.20
2019-02-06T07:14:26.141Z,11.53
2019-02-06T07:16:30.018Z,9.40
2019-02-06T07:18:33.923Z,9.95
2019-02-06T07:20:37.826Z,10.32
2019-02-06T07:22:41.711Z,11.10
2019-02-06T07:24:45.636Z,10.80
2019-02-06T07:26:49.525Z,10.32
2019-02-06T07:28:53.533Z,9.98
2019-02-06T07:30:57.329Z,10.95
2019-02-06T07:33:01.455Z,10.05
2019-02-06T07:35:08.079Z,10.55
2019-02-06T07:37:11.924Z,9.78
2019-02-06T07:39:15.916Z,10.08
2019-02-06T07:41:20.763Z,8.70
2019-02-06T07:43:24.718Z,10.72
2019-02-06T07:45:28.557Z,11.57
2019-02-06T07:47:32.437Z,9.88
2019-02-06T07:49:38.282Z,10.70
2019-02-06T07:51:42.065Z,10.55
2019-02-06T07:53:47.489Z,11.40
2019-02-06T07:55:51.383Z,12.37
2019-02-06T07:57:55.371Z,11.90
2019-02-06T08:00:00.340Z,10.32
2019-02-06T08:02:04.508Z,11.07
2019-02-06T08:04:08.436Z,9.30
2019-02-06T08:06:12.416Z,11.35
2019-02-06T08:08:16.435Z,14.83
2019-02-06T08:10:26.143Z,14.13
2019-02-06T08:12:30.011Z,15.27
2019-02-06T08:14:35.488Z,18.30
2019-02-06T08:16:39.390Z,17.43
2019-02-06T08:18:43.326Z,15.13
2019-02-06T08:20:47.328Z,12.40
2019-02-06T08:22:51.402Z,14.17
2019-02-06T08:24:55.553Z,13.60
2019-02-06T08:27:01.047Z,13.63
2019-02-06T08:29:05.022Z,13.30
2019-02-06T08:31:09.145Z,11.83
2019-02-06T08:33:13.214Z,13.00
2019-02-06T08:35:17.279Z,13.23
2019-02-06T08:37:21.188Z,15.80
2019-02-06T08:39:25.153Z,16.07
2019-02-06T08:41:29.094Z,13.63
2019-02-06T08:43:32.948Z,13.20
2019-02-06T08:45:36.964Z,14.33
2019-02-06T08:47:41.094Z,13.10
2019-02-06T08:49:45.049Z,13.97
2019-02-06T08:51:49.108Z,13.60
2019-02-06T08:53:52.975Z,16.60
2019-02-06T08:55:56.858Z,15.73
2019-02-06T08:58:02.670Z,17.33
2019-02-06T09:00:09.870Z,16.60
2019-02-06T09:02:13.837Z,16.60
2019-02-06T09:04:17.693Z,14.47
2019-02-06T09:06:21.635Z,12.87
2019-02-06T09:08:25.488Z,13.73
2019-02-06T09:10:31.010Z,12.83
2019-02-06T09:12:35.506Z,13.77
2019-02-06T09:14:39.729Z,15.90
2019-02-06T09:16:43.610Z,15.77
2019-02-06T09:18:47.466Z,13.17
2019-02-06T09:20:52.759Z,14.40
2019-02-06T09:23:01.235Z,14.67
2019-02-06T09:25:10.675Z,13.67
2019-02-06T09:27:16.055Z,15.97
2019-02-06T09:29:19.963Z,15.50
2019-02-06T09:31:25.643Z,13.90
2019-02-06T09:33:31.035Z,15.70
2019-02-06T09:35:35.026Z,15.33
2019-02-06T09:37:38.920Z,16.67
2019-02-06T09:39:42.756Z,14.47
2019-02-06T09:41:49.238Z,17.00
2019-02-06T09:43:54.618Z,16.87
2019-02-06T09:45:58.497Z,17.30
2019-02-06T09:48:02.351Z,13.17
2019-02-06T09:50:12.128Z,14.37
2019-02-06T09:52:16.819Z,14.27
2019-02-06T09:54:20.883Z,14.03
2019-02-06T09:56:24.818Z,13.30
2019-02-06T09:58:28.700Z,13.90
2019-02-06T10:00:35.281Z,14.40
2019-02-06T10:02:39.569Z,15.90
2019-02-06T10:04:43.396Z,14.53
2019-02-06T10:06:47.379Z,15.60
2019-02-06T10:08:52.251Z,16.40
2019-02-06T10:10:56.123Z,16.00
2019-02-06T10:13:00.269Z,16.00
2019-02-06T10:15:08.172Z,15.23
2019-02-06T10:17:12.312Z,16.10
2019-02-06T10:19:18.441Z,15.93
2019-02-06T10:21:22.316Z,14.23
2019-02-06T10:23:26.271Z,16.23
2019-02-06T10:25:30.460Z,16.53
2019-02-06T10:27:34.494Z,15.10
2019-02-06T10:29:38.458Z,14.57
2019-02-06T10:31:42.456Z,14.93
2019-02-06T10:33:46.291Z,15.13
2019-02-06T10:35:52.309Z,15.60
2019-02-06T10:37:55.907Z,15.47
2019-02-06T10:39:59.917Z,13.33
2019-02-06T10:42:03.906Z,16.70
2019-02-06T10:44:07.888Z,14.57
2019-02-06T10:46:11.737Z,17.70
2019-02-06T10:48:15.739Z,15.40
2019-02-06T10:50:25.077Z,16.00
2019-02-06T10:52:30.641Z,16.00
2019-02-06T10:54:34.500Z,17.27
2019-02-06T10:56:38.329Z,16.60
2019-02-06T10:58:42.255Z,17.20
2019-02-06T11:00:49.106Z,17.67
2019-02-06T11:02:53.107Z,17.70
2019-02-06T11:04:57.132Z,17.00
2019-02-06T11:07:01.038Z,16.60
2019-02-06T11:09:07.298Z,15.50
2019-02-06T11:11:13.948Z,14.80
2019-02-06T11:13:17.839Z,15.30
2019-02-06T11:15:23.267Z,15.27
2019-02-06T11:17:30.449Z,15.97
2019-02-06T11:19:34.526Z,15.43
2019-02-06T11:21:38.416Z,16.23
2019-02-06T11:23:42.592Z,15.93
2019-02-06T11:25:46.458Z,16.60
2019-02-06T11:27:55.974Z,16.93
2019-02-06T11:29:59.981Z,16.17
2019-02-06T11:32:03.857Z,15.93
2019-02-06T11:34:08.706Z,18.13
2019-02-06T11:36:23.799Z,16.70
2019-02-06T11:38:19.935Z,17.50
2019-02-06T11:40:25.259Z,16.00
2019-02-06T11:42:29.207Z,15.93
2019-02-06T11:44:33.517Z,16.87
2019-02-06T11:46:37.506Z,17.10
2019-02-06T11:48:43.361Z,16.53
2019-02-06T11:50:47.116Z,16.20
2019-02-06T11:52:51.964Z,16.33
2019-02-06T11:54:55.938Z,15.73
2019-02-06T11:57:01.392Z,15.93
2019-02-06T11:59:05.390Z,16.60
2019-02-06T12:01:14.819Z,17.20
2019-02-06T12:03:18.802Z,15.87
2019-02-06T12:05:22.772Z,17.43
2019-02-06T12:07:26.639Z,17.33
2019-02-06T12:09:32.045Z,16.33
2019-02-06T12:11:36.128Z,16.97
2019-02-06T12:13:42.223Z,17.13
2019-02-06T12:15:46.041Z,14.50
2019-02-06T12:17:50.208Z,16.43
2019-02-06T12:19:54.174Z,16.27
2019-02-06T12:21:58.194Z,17.03
2019-02-06T12:24:03.736Z,15.03
2019-02-06T12:26:07.715Z,16.13
2019-02-06T12:28:13.712Z,14.07
2019-02-06T12:30:29.614Z,17.10
2019-02-06T12:32:33.495Z,18.20
2019-02-06T12:34:39.025Z,14.13
2019-02-06T12:36:44.781Z,12.43
2019-02-06T12:38:53.606Z,13.70
2019-02-06T12:40:54.176Z,13.10
2019-02-06T12:42:58.806Z,14.77
2019-02-06T12:45:02.661Z,15.63
2019-02-06T12:47:09.322Z,15.77
2019-02-06T12:49:15.687Z,15.70
2019-02-06T12:51:19.587Z,16.17
2019-02-06T12:53:23.553Z,15.90
2019-02-06T12:55:34.202Z,15.00
2019-02-06T12:57:39.504Z,16.10
2019-02-06T12:59:43.452Z,16.53
2019-02-06T13:01:47.300Z,16.33
2019-02-06T13:03:51.229Z,14.47
2019-02-06T13:05:55.910Z,13.50
2019-02-06T13:08:00.418Z,14.33
2019-02-06T13:10:07.216Z,13.00
2019-02-06T13:12:11.166Z,13.77
2019-02-06T13:14:15.165Z,12.83
2019-02-06T13:16:19.342Z,13.37
2019-02-06T13:18:24.383Z,13.43
2019-02-06T13:20:33.996Z,11.30
2019-02-06T13:22:38.131Z,10.90
2019-02-06T13:24:41.932Z,9.40
2019-02-06T13:26:47.486Z,10.07
2019-02-06T13:28:53.600Z,10.70
2019-02-06T13:30:57.554Z,14.53
2019-02-06T13:33:01.749Z,15.57
2019-02-06T13:35:08.872Z,14.80
2019-02-06T13:37:12.854Z,15.70
2019-02-06T13:39:17.196Z,14.07
2019-02-06T13:41:21.162Z,15.23
2019-02-06T13:43:25.043Z,14.97
2019-02-06T13:45:40.850Z,14.20
2019-02-06T13:47:44.728Z,15.53
2019-02-06T13:49:50.181Z,14.90
2019-02-06T13:51:55.224Z,14.17
2019-02-06T13:53:59.112Z,14.77
2019-02-06T13:56:03.263Z,15.67
2019-02-06T13:58:19.760Z,15.43
2019-02-06T14:00:23.196Z,16.53
2019-02-06T14:02:28.850Z,14.67
2019-02-06T14:04:33.384Z,14.70
2019-02-06T14:06:37.357Z,15.80
2019-02-06T14:08:41.274Z,15.73
2019-02-06T14:10:58.370Z,15.40
2019-02-06T14:12:53.538Z,14.50
2019-02-06T14:14:57.773Z,15.93
2019-02-06T14:17:02.486Z,15.40
2019-02-06T14:19:06.521Z,15.40
2019-02-06T14:21:10.354Z,15.10
2019-02-06T14:23:28.367Z,15.90
2019-02-06T14:25:44.181Z,15.60
2019-02-06T14:27:53.171Z,15.30
2019-02-06T14:30:28.444Z,15.93
2019-02-06T14:32:35.454Z,15.47
2019-02-06T14:35:01.483Z,15.73
2019-02-06T14:37:14.304Z,14.93
2019-02-06T14:39:23.570Z,14.90
2019-02-06T14:41:33.155Z,15.63
2019-02-06T14:43:43.763Z,16.40
2019-02-06T14:45:53.377Z,14.80
2019-02-06T14:48:12.080Z,15.40
2019-02-06T14:50:21.701Z,16.13
2019-02-06T14:52:37.411Z,15.30
2019-02-06T14:54:53.166Z,14.43
2019-02-06T14:57:03.275Z,14.33
2019-02-06T14:59:21.985Z,13.87
2019-02-06T15:01:40.660Z,13.60
2019-02-06T15:03:59.166Z,14.50
2019-02-06T15:06:07.132Z,14.87
2019-02-06T15:08:27.035Z,13.63
2019-02-06T15:10:53.003Z,13.70
2019-02-06T15:13:05.624Z,14.23
2019-02-06T15:15:39.318Z,13.27
2019-02-06T15:18:07.145Z,13.73
2019-02-06T15:20:13.840Z,14.87
2019-02-06T15:22:29.553Z,15.27
2019-02-06T15:24:58.826Z,14.00
2019-02-06T15:27:08.365Z,15.33
2019-02-06T15:29:17.722Z,15.77
2019-02-06T15:31:30.230Z,14.47
2019-02-06T15:33:53.526Z,14.30
2019-02-06T15:36:06.737Z,14.87
2019-02-06T15:38:25.413Z,14.30
2019-02-06T15:40:40.643Z,14.00
2019-02-06T15:42:53.449Z,14.37
2019-02-06T15:45:05.319Z,15.07
2019-02-06T15:47:33.096Z,15.50
2019-02-06T15:49:46.779Z,13.50
2019-02-06T15:52:08.565Z,14.87
2019-02-06T15:54:15.285Z,13.60
2019-02-06T15:56:39.584Z,14.00
2019-02-06T15:58:49.167Z,14.10
2019-02-06T16:01:01.730Z,13.53
2019-02-06T16:03:20.319Z,14.33
2019-02-06T16:05:55.636Z,13.67
2019-02-06T16:08:08.210Z,13.60
2019-02-06T16:10:20.549Z,15.70
2019-02-06T16:12:52.990Z,14.00
2019-02-06T16:15:20.976Z,12.93
2019-02-06T16:17:27.673Z,14.83
2019-02-06T16:20:05.933Z,15.27
2019-02-06T16:22:30.118Z,17.13
2019-02-06T16:24:39.338Z,16.70
2019-02-06T16:27:02.619Z,24.17
2019-02-06T16:29:24.936Z,36.70
2019-02-06T16:31:43.300Z,34.10
2019-02-06T16:33:55.735Z,35.27
2019-02-06T16:36:22.119Z,28.50
2019-02-06T16:38:31.784Z,19.03
2019-02-06T16:40:54.076Z,17.37
2019-02-06T16:43:19.888Z,16.10
2019-02-06T16:45:34.488Z,15.33
2019-02-06T16:47:59.354Z,15.13
2019-02-06T16:50:30.219Z,14.03
2019-02-06T16:52:44.622Z,13.90
2019-02-06T16:54:56.428Z,24.47
2019-02-06T16:57:03.103Z,22.97
2019-02-06T16:59:34.093Z,23.20
2019-02-06T17:01:44.092Z,24.30
2019-02-06T17:04:14.535Z,19.40
2019-02-06T17:06:27.330Z,17.33
2019-02-06T17:08:53.341Z,15.97
2019-02-06T17:11:02.653Z,15.57
2019-02-06T17:13:09.368Z,13.27
2019-02-06T17:15:31.374Z,14.00
2019-02-06T17:17:55.974Z,14.07
2019-02-06T17:20:19.510Z,22.77
2019-02-06T17:22:35.120Z,24.20
2019-02-06T17:25:16.810Z,26.80
2019-02-06T17:27:41.571Z,17.80
2019-02-06T17:30:01.607Z,13.93
2019-02-06T17:32:40.411Z,15.33
2019-02-06T17:35:12.992Z,16.10
2019-02-06T17:37:34.057Z,15.43
2019-02-06T17:39:58.810Z,17.13
2019-02-06T17:42:15.999Z,16.90
2019-02-06T17:44:50.118Z,17.07
2019-02-06T17:46:58.352Z,16.70
2019-02-06T17:49:24.065Z,17.73
2019-02-06T17:51:41.546Z,17.33
2019-02-06T17:53:48.258Z,18.70
2019-02-06T17:55:52.313Z,17.03
2019-02-06T17:57:56.033Z,17.03
2019-02-06T18:00:03.305Z,18.23
2019-02-06T18:02:08.660Z,15.83
2019-02-06T18:04:13.327Z,15.40
2019-02-06T18:06:17.508Z,18.17
2019-02-06T18:08:21.310Z,16.70
2019-02-06T18:10:25.233Z,15.90
2019-02-06T18:12:30.374Z,18.03
2019-02-06T18:14:34.815Z,15.30
2019-02-06T18:16:39.332Z,21.30
2019-02-06T18:18:43.322Z,24.00
2019-02-06T18:20:47.061Z,22.17
2019-02-06T18:22:50.832Z,22.23
2019-02-06T18:24:55.057Z,22.20
2019-02-06T18:26:58.922Z,20.50
2019-02-06T18:29:03.956Z,18.17
2019-02-06T18:31:09.366Z,18.90
2019-02-06T18:33:14.806Z,18.23
2019-02-06T18:35:18.610Z,16.83
2019-02-06T18:37:23.517Z,15.93
2019-02-06T18:39:27.346Z,16.30
2019-02-06T18:41:31.271Z,15.00
2019-02-06T18:43:35.035Z,14.90
2019-02-06T18:45:40.629Z,13.80
2019-02-06T18:47:48.304Z,13.73
2019-02-06T18:49:52.101Z,15.03
2019-02-06T18:51:55.918Z,13.53
2019-02-06T18:54:01.880Z,14.37
2019-02-06T18:56:05.867Z,13.50
2019-02-06T18:58:09.797Z,12.97
2019-02-06T19:00:16.456Z,14.80
2019-02-06T19:02:20.910Z,14.03
2019-02-06T19:04:25.874Z,13.17
2019-02-06T19:06:30.475Z,14.00
2019-02-06T19:08:34.292Z,15.00
2019-02-06T19:10:38.869Z,13.33
2019-02-06T19:12:47.984Z,13.23
2019-02-06T19:14:54.082Z,13.90
2019-02-06T19:17:00.544Z,11.97
2019-02-06T19:19:08.666Z,12.33
2019-02-06T19:21:13.714Z,12.53
2019-02-06T19:23:17.933Z,17.30
2019-02-06T19:25:23.986Z,20.87
2019-02-06T19:27:47.826Z,19.30
2019-02-06T19:29:54.623Z,19.27
2019-02-06T19:32:00.517Z,21.40
2019-02-06T19:34:12.015Z,19.13
2019-02-06T19:36:17.250Z,18.27
2019-02-06T19:38:21.276Z,19.60
2019-02-06T19:40:25.099Z,17.37
2019-02-06T19:42:28.726Z,20.00
2019-02-06T19:44:32.443Z,20.00
2019-02-06T19:46:36.238Z,18.43
2019-02-06T19:48:40.231Z,16.00
2019-02-06T19:50:46.199Z,14.90
2019-02-06T19:52:50.784Z,15.80
2019-02-06T19:54:55.205Z,15.40
2019-02-06T19:56:58.940Z,17.47
2019-02-06T19:59:02.621Z,18.13
2019-02-06T20:01:06.364Z,16.73
2019-02-06T20:03:10.115Z,18.70
2019-02-06T20:05:16.145Z,15.53
2019-02-06T20:07:20.187Z,16.50
2019-02-06T20:09:24.572Z,15.80
2019-02-06T20:11:28.308Z,15.20
2019-02-06T20:13:32.464Z,14.07
2019-02-06T20:15:36.484Z,17.00
2019-02-06T20:17:42.042Z,19.17
2019-02-06T20:19:47.068Z,18.53
2019-02-06T20:21:50.794Z,15.50
2019-02-06T20:23:55.535Z,15.60
2019-02-06T20:25:59.290Z,16.77
2019-02-06T20:28:03.004Z,17.93
2019-02-06T20:30:27.114Z,18.63
2019-02-06T20:32:30.785Z,19.83
2019-02-06T20:34:38.179Z,23.00
2019-02-06T20:36:41.476Z,26.23
2019-02-06T20:38:45.182Z,31.10
2019-02-06T20:40:49.001Z,36.47
2019-02-06T20:42:53.466Z,40.20
2019-02-06T20:44:57.163Z,43.43
2019-02-06T20:47:00.818Z,41.80
2019-02-06T20:49:05.234Z,38.63
2019-02-06T20:51:09.082Z,37.40
2019-02-06T20:53:13.032Z,37.33
2019-02-06T20:55:17.186Z,32.33
2019-02-06T20:57:20.858Z,26.80
2019-02-06T20:59:25.069Z,19.77
2019-02-06T21:01:29.198Z,16.50
2019-02-06T21:03:32.999Z,13.23
2019-02-06T21:05:36.925Z,14.43
2019-02-06T21:07:40.800Z,16.07
2019-02-06T21:09:44.799Z,16.63
2019-02-06T21:11:48.600Z,18.17
2019-02-06T21:13:52.457Z,20.27
2019-02-06T21:15:56.262Z,21.33
2019-02-06T21:18:01.872Z,21.70
2019-02-06T21:20:13.379Z,22.17
2019-02-06T21:22:19.099Z,24.03
2019-02-06T21:24:23.543Z,24.37
2019-02-06T21:26:28.075Z,25.80
2019-02-06T21:28:32.122Z,24.00
2019-02-06T21:30:43.564Z,25.60
2019-02-06T21:32:47.505Z,25.73
2019-02-06T21:34:51.644Z,25.57
2019-02-06T21:36:55.475Z,22.20
2019-02-06T21:38:59.331Z,21.70
2019-02-06T21:41:03.236Z,20.93
2019-02-06T21:43:07.569Z,21.53
2019-02-06T21:45:12.274Z,21.97
2019-02-06T21:47:16.476Z,23.57
2019-02-06T21:49:20.589Z,24.60
2019-02-06T21:51:24.443Z,26.70
2019-02-06T21:53:28.275Z,27.37
2019-02-06T21:55:32.554Z,25.67
2019-02-06T21:57:36.359Z,24.00
2019-02-06T21:59:40.094Z,22.80
2019-02-06T22:01:45.015Z,23.40
2019-02-06T22:03:48.982Z,20.33
2019-02-06T22:05:52.649Z,19.37
2019-02-06T22:07:57.054Z,18.80
2019-02-06T22:10:01.387Z,19.93
2019-02-06T22:12:05.203Z,19.67
2019-02-06T22:14:09.209Z,20.80
2019-02-06T22:16:13.200Z,20.77
2019-02-06T22:18:17.558Z,20.87
2019-02-06T22:20:21.429Z,23.10
2019-02-06T22:22:28.926Z,22.90
2019-02-06T22:24:32.868Z,23.30
2019-02-06T22:26:36.784Z,21.80
2019-02-06T22:28:40.625Z,19.83
2019-02-06T22:30:45.566Z,19.60
2019-02-06T22:32:49.346Z,19.50
2019-02-06T22:34:53.052Z,18.90
2019-02-06T22:36:57.092Z,20.33
2019-02-06T22:39:00.862Z,20.70
2019-02-06T22:41:04.726Z,21.70
2019-02-06T22:43:08.504Z,20.60
2019-02-06T22:45:17.479Z,18.10
2019-02-06T22:47:22.762Z,20.20
2019-02-06T22:49:26.535Z,22.47
2019-02-06T22:51:30.382Z,26.57
2019-02-06T22:53:34.149Z,23.90
2019-02-06T22:55:38.323Z,22.33
2019-02-06T22:57:42.074Z,22.50
2019-02-06T22:59:45.851Z,20.73
2019-02-06T23:01:49.819Z,17.77
2019-02-06T23:03:53.638Z,17.20
2019-02-06T23:05:58.165Z,17.60
2019-02-06T23:08:01.926Z,17.90
2019-02-06T23:10:07.267Z,17.83
2019-02-06T23:12:13.927Z,20.90
2019-02-06T23:14:19.847Z,23.43
2019-02-06T23:16:23.183Z,21.83
2019-02-06T23:18:26.898Z,20.90
2019-02-06T23:20:30.688Z,20.80
2019-02-06T23:22:34.421Z,20.90
2019-02-06T23:24:38.187Z,17.63
2019-02-06T23:26:42.054Z,17.80
2019-02-06T23:28:45.772Z,16.57
2019-02-06T23:30:50.819Z,18.07
2019-02-06T23:32:56.777Z,16.77
2019-02-06T23:35:00.785Z,15.90
2019-02-06T23:37:04.641Z,15.03
2019-02-06T23:39:16.143Z,16.10
2019-02-06T23:41:21.859Z,16.50
2019-02-06T23:43:26.225Z,16.03
2019-02-06T23:45:30.174Z,17.33
2019-02-06T23:47:34.225Z,16.70
2019-02-06T23:49:38.020Z,16.23
2019-02-06T23:51:41.856Z,17.80
2019-02-06T23:53:49.979Z,15.77
2019-02-06T23:55:53.939Z,18.07
2019-02-06T23:58:00.850Z,21.60
